Time;durP1;ratioP1;P1;durP2;ratioP2;P2;SDS_P1;SDS_P2;PMS_P1;PMS_P2;Temp;Humidity;BMP_temperature;BMP_pressure;BME280_temperature;BME280_humidity;BME280_pressure;Samples;Min_cycle;Max_cycle;Signal;HPM_P1;HPM_P2
2022/04/28 00:00:36;;;;;;;12.25;6.25;;;7.40;84.80;;;;;;5061752;28;20209;-61
2022/04/28 00:03:05;;;;;;;11.65;6.30;;;7.40;85.40;;;;;;5060636;28;20208;-61
2022/04/28 00:05:32;;;;;;;8.95;6.22;;;7.40;85.50;;;;;;5060573;28;20214;-61
2022/04/28 00:08:00;;;;;;;9.98;6.53;;;7.30;86.00;;;;;;5059734;28;20206;-61
2022/04/28 00:10:27;;;;;;;5.80;5.18;;;7.30;86.30;;;;;;5060081;28;20255;-62
2022/04/28 00:12:54;;;;;;;19.98;6.78;;;7.30;86.80;;;;;;5061834;28;20225;-61
2022/04/28 00:15:21;;;;;;;10.27;6.18;;;7.30;87.00;;;;;;5062312;28;20620;-61
2022/04/28 00:17:48;;;;;;;7.55;5.72;;;7.20;87.60;;;;;;5061901;28;20202;-61
2022/04/28 00:20:16;;;;;;;9.43;5.88;;;7.20;87.80;;;;;;5062552;28;20202;-61
2022/04/28 00:22:43;;;;;;;8.90;5.93;;;7.20;88.10;;;;;;5062532;28;20208;-61
2022/04/28 00:25:11;;;;;;;8.75;6.28;;;7.20;88.60;;;;;;5062396;28;20677;-63
2022/04/28 00:27:39;;;;;;;12.85;6.38;;;7.10;88.70;;;;;;5062366;28;20213;-61
2022/04/28 00:30:08;;;;;;;10.07;6.45;;;7.10;89.10;;;;;;5062605;28;20384;-61
2022/04/28 00:32:37;;;;;;;11.57;6.15;;;7.10;89.60;;;;;;5062172;28;20206;-61
2022/04/28 00:35:04;;;;;;;8.63;6.70;;;7.00;89.80;;;;;;5061990;28;20218;-62
2022/04/28 00:37:33;;;;;;;12.75;7.53;;;7.00;90.40;;;;;;5061159;28;20201;-61
2022/04/28 00:40:01;;;;;;;11.23;6.60;;;7.00;90.30;;;;;;5061229;28;20220;-61
2022/04/28 00:42:29;;;;;;;10.07;6.55;;;7.00;90.50;;;;;;5062365;28;20208;-61
2022/04/28 00:44:56;;;;;;;9.32;6.18;;;7.00;90.60;;;;;;5062116;28;20226;-60
2022/04/28 00:50:38;;;;;;;13.10;7.35;;;6.90;90.70;;;;;;5062258;28;20197;-61
2022/04/28 00:52:58;;;;;;;8.25;6.55;;;6.90;91.10;;;;;;5061348;28;20739;-61
2022/04/28 00:55:26;;;;;;;11.85;6.90;;;6.90;91.40;;;;;;5059212;28;20220;-62
2022/04/28 00:57:53;;;;;;;9.20;6.70;;;6.90;91.60;;;;;;5059093;28;20207;-61
2022/04/28 01:00:21;;;;;;;8.52;6.00;;;6.80;91.60;;;;;;5060196;28;20202;-61
2022/04/28 01:02:48;;;;;;;11.70;6.72;;;6.80;91.70;;;;;;5061056;28;20198;-61
2022/04/28 01:05:15;;;;;;;9.80;6.80;;;6.80;91.90;;;;;;5061253;28;20221;-62
2022/04/28 01:07:42;;;;;;;11.10;6.72;;;6.80;91.90;;;;;;5060685;28;20205;-63
2022/04/28 01:10:11;;;;;;;10.73;7.03;;;6.80;92.10;;;;;;5060263;28;20206;-60
2022/04/28 01:12:38;;;;;;;9.70;6.53;;;6.80;92.20;;;;;;5059976;28;20213;-62
2022/04/28 01:15:06;;;;;;;17.80;7.95;;;6.70;92.30;;;;;;5059745;28;20217;-63
2022/04/28 01:17:33;;;;;;;12.23;6.50;;;6.70;92.40;;;;;;5060276;28;20198;-62
2022/04/28 01:20:00;;;;;;;12.48;6.60;;;6.70;92.50;;;;;;5059524;28;20221;-62
2022/04/28 01:22:29;;;;;;;15.38;6.63;;;6.70;92.70;;;;;;5059545;28;20350;-63
2022/04/28 01:24:56;;;;;;;12.60;6.50;;;6.70;92.80;;;;;;5060180;28;20218;-62
2022/04/28 01:27:26;;;;;;;17.17;6.95;;;6.70;92.90;;;;;;5059843;28;20206;-62
2022/04/28 01:29:53;;;;;;;10.05;7.00;;;6.60;93.00;;;;;;5059695;28;20190;-62
2022/04/28 01:32:20;;;;;;;19.13;6.88;;;6.60;93.10;;;;;;5059627;28;20236;-63
2022/04/28 01:34:47;;;;;;;12.73;6.45;;;6.60;93.20;;;;;;5059945;28;20229;-62
2022/04/28 01:37:14;;;;;;;9.30;6.70;;;6.60;93.30;;;;;;5059408;28;20577;-62
2022/04/28 01:39:43;;;;;;;17.23;6.57;;;6.60;93.50;;;;;;5059232;28;20202;-62
2022/04/28 01:42:10;;;;;;;10.43;6.43;;;6.50;93.50;;;;;;5059217;28;20209;-62
2022/04/28 01:44:38;;;;;;;10.82;7.25;;;6.50;93.70;;;;;;5059958;28;20245;-62
2022/04/28 01:47:05;;;;;;;8.57;6.53;;;6.50;93.80;;;;;;5061000;28;20201;-62
2022/04/28 01:49:32;;;;;;;11.52;6.65;;;6.50;93.90;;;;;;5058192;28;20202;-62
2022/04/28 01:57:27;;;;;;;17.20;6.32;;;6.40;94.20;;;;;;5052722;28;20201;-62
2022/04/28 01:59:54;;;;;;;11.32;6.70;;;6.30;94.40;;;;;;5057496;28;20259;-62
2022/04/28 02:02:21;;;;;;;15.07;7.18;;;6.30;94.50;;;;;;5057852;28;20213;-62
2022/04/28 02:04:49;;;;;;;16.13;8.10;;;6.30;94.70;;;;;;5059576;28;20233;-63
2022/04/28 02:07:16;;;;;;;12.50;6.28;;;6.30;94.80;;;;;;5061822;28;20206;-62
2022/04/28 02:09:46;;;;;;;10.95;7.05;;;6.30;94.80;;;;;;5061694;28;20205;-62
2022/04/28 02:12:14;;;;;;;11.73;7.20;;;6.20;94.90;;;;;;5061556;28;20546;-61
2022/04/28 02:14:41;;;;;;;8.95;6.10;;;6.30;95.00;;;;;;5061489;28;20225;-61
2022/04/28 02:17:08;;;;;;;14.32;7.70;;;6.30;95.00;;;;;;5060791;28;20201;-61
2022/04/28 02:19:35;;;;;;;8.40;6.55;;;6.30;95.10;;;;;;5061011;28;20284;-62
2022/04/28 02:22:03;;;;;;;8.75;6.07;;;6.30;95.20;;;;;;5061004;28;20197;-61
2022/04/28 02:24:30;;;;;;;14.63;6.53;;;6.20;95.20;;;;;;5062487;28;20221;-61
2022/04/28 02:26:59;;;;;;;13.73;7.85;;;6.30;95.20;;;;;;5061046;28;20221;-61
2022/04/28 02:29:26;;;;;;;16.35;7.78;;;6.30;95.10;;;;;;5060122;28;20201;-61
2022/04/28 02:31:53;;;;;;;12.57;7.60;;;6.20;95.10;;;;;;5059712;28;20202;-62
2022/04/28 02:34:20;;;;;;;12.00;6.82;;;6.20;95.20;;;;;;5058475;28;20230;-61
2022/04/28 02:36:47;;;;;;;7.38;6.53;;;6.10;95.30;;;;;;5058757;28;20205;-60
2022/04/28 02:39:15;;;;;;;15.48;7.15;;;6.10;95.50;;;;;;5060314;28;20650;-61
2022/04/28 02:41:42;;;;;;;9.05;6.45;;;6.10;95.80;;;;;;5059882;28;20232;-62
2022/04/28 02:44:12;;;;;;;10.73;6.65;;;6.10;95.80;;;;;;5088294;22;20236;-61
2022/04/28 02:46:39;;;;;;;10.65;6.10;;;6.10;96.00;;;;;;5082533;28;20266;-61
2022/04/28 02:49:06;;;;;;;9.90;6.88;;;6.00;96.10;;;;;;5078202;28;20224;-63
2022/04/28 02:51:33;;;;;;;13.70;6.68;;;6.00;96.10;;;;;;5076947;28;20688;-62
2022/04/28 02:54:00;;;;;;;8.75;6.65;;;6.00;96.20;;;;;;5080800;28;20232;-62
2022/04/28 02:56:27;;;;;;;12.20;7.80;;;5.90;96.30;;;;;;5090046;28;20201;-62
2022/04/28 02:58:54;;;;;;;12.63;7.60;;;5.90;96.40;;;;;;5091873;28;20201;-61
2022/04/28 03:01:23;;;;;;;15.07;8.93;;;5.90;96.80;;;;;;5092616;28;20202;-62
2022/04/28 03:03:51;;;;;;;10.23;7.18;;;5.80;96.90;;;;;;5087577;28;20208;-61
2022/04/28 03:11:47;;;;;;;14.65;8.38;;;5.80;97.30;;;;;;5076925;28;20314;-62
2022/04/28 03:14:15;;;;;;;8.45;6.63;;;5.80;97.50;;;;;;5076554;28;20337;-61
2022/04/28 03:16:43;;;;;;;10.68;7.35;;;5.70;97.60;;;;;;5075608;28;20200;-61
2022/04/28 03:19:10;;;;;;;15.90;7.85;;;5.70;97.60;;;;;;5076766;28;20208;-62
2022/04/28 03:21:38;;;;;;;12.13;7.70;;;5.70;97.80;;;;;;5078433;28;20201;-62
2022/04/28 03:24:05;;;;;;;15.48;7.82;;;5.70;97.90;;;;;;5078689;28;20266;-60
2022/04/28 03:26:33;;;;;;;12.35;7.30;;;5.70;97.90;;;;;;5078194;28;20213;-60
2022/04/28 03:29:00;;;;;;;13.85;8.32;;;5.70;97.90;;;;;;5078449;28;20251;-61
2022/04/28 03:31:27;;;;;;;11.80;7.55;;;5.70;98.20;;;;;;5078430;28;20201;-63
2022/04/28 03:33:56;;;;;;;12.25;7.50;;;5.70;98.30;;;;;;5075656;28;20217;-61
2022/04/28 03:39:07;;;;;;;16.10;8.07;;;5.60;98.50;;;;;;5075689;28;20235;-62
2022/04/28 03:41:34;;;;;;;12.82;8.40;;;5.60;98.70;;;;;;5075617;28;20206;-62
2022/04/28 03:44:01;;;;;;;10.77;6.80;;;5.60;98.80;;;;;;5075400;28;20239;-62
2022/04/28 03:46:29;;;;;;;13.27;7.78;;;5.50;99.00;;;;;;5075161;28;20295;-62
2022/04/28 03:48:57;;;;;;;11.43;8.52;;;5.50;99.00;;;;;;5075074;28;20212;-62
2022/04/28 03:51:24;;;;;;;9.65;7.80;;;5.50;99.30;;;;;;5074953;28;20573;-61
2022/04/28 03:53:51;;;;;;;13.25;8.43;;;5.50;99.40;;;;;;5074916;28;20239;-61
2022/04/28 03:56:18;;;;;;;12.52;8.80;;;5.50;99.40;;;;;;5075807;28;20205;-61
2022/04/28 03:58:46;;;;;;;11.35;7.82;;;5.40;99.60;;;;;;5075411;28;20650;-62
2022/04/28 04:01:13;;;;;;;12.93;8.10;;;5.40;99.70;;;;;;5075549;28;20681;-61
2022/04/28 04:03:40;;;;;;;12.80;8.68;;;5.40;99.70;;;;;;5075974;28;20197;-61
2022/04/28 04:09:40;;;;;;;13.88;8.70;;;5.40;99.90;;;;;;5097448;27;20546;-60
2022/04/28 04:12:08;;;;;;;12.43;9.13;;;5.40;99.90;;;;;;5098206;28;20199;-61
2022/04/28 04:14:35;;;;;;;16.17;8.55;;;5.40;99.90;;;;;;5100195;28;20731;-61
2022/04/28 04:17:02;;;;;;;12.93;8.85;;;5.40;99.90;;;;;;5097647;28;20200;-62
2022/04/28 04:19:30;;;;;;;13.95;8.63;;;5.40;99.90;;;;;;5095653;28;20683;-61
2022/04/28 04:21:58;;;;;;;14.13;9.38;;;5.50;99.90;;;;;;5094458;28;20211;-62
2022/04/28 04:24:26;;;;;;;12.75;9.50;;;5.50;99.90;;;;;;5094009;28;20637;-61
2022/04/28 04:26:54;;;;;;;14.88;8.90;;;5.60;99.90;;;;;;5091140;28;20208;-62
2022/04/28 04:29:21;;;;;;;13.05;8.52;;;5.70;99.90;;;;;;5090887;28;20220;-63
2022/04/28 04:34:33;;;;;;;19.48;8.98;;;6.00;99.90;;;;;;5090850;28;20216;-61
2022/04/28 04:37:00;;;;;;;14.98;8.02;;;6.10;99.90;;;;;;5090680;28;20692;-62
2022/04/28 04:39:27;;;;;;;15.93;8.95;;;6.20;99.90;;;;;;5090554;28;20193;-61
2022/04/28 04:41:55;;;;;;;10.80;8.18;;;6.40;99.90;;;;;;5091050;28;20201;-61
2022/04/28 04:44:22;;;;;;;13.10;8.45;;;6.50;99.90;;;;;;5092453;28;20231;-62
2022/04/28 04:46:49;;;;;;;14.32;8.85;;;6.70;99.80;;;;;;5091932;28;20254;-62
2022/04/28 04:49:17;;;;;;;15.82;9.10;;;6.80;99.50;;;;;;5091715;28;20226;-62
2022/04/28 04:51:45;;;;;;;11.60;8.50;;;7.00;99.10;;;;;;5095003;28;20204;-62
2022/04/28 04:54:12;;;;;;;13.70;8.77;;;7.20;98.60;;;;;;5093353;28;20238;-62
2022/04/28 04:56:39;;;;;;;9.68;7.43;;;7.30;98.00;;;;;;5093124;28;20201;-62
2022/04/28 04:59:07;;;;;;;15.55;9.00;;;7.40;97.40;;;;;;5092970;28;20196;-62
2022/04/28 05:01:34;;;;;;;9.07;8.15;;;7.60;97.00;;;;;;5092354;28;20695;-62
2022/04/28 05:04:01;;;;;;;11.05;9.50;;;7.60;96.40;;;;;;5092291;28;20221;-62
2022/04/28 05:06:29;;;;;;;12.60;9.25;;;7.60;95.80;;;;;;5094684;28;20227;-61
2022/04/28 05:08:57;;;;;;;8.82;7.07;;;7.60;95.60;;;;;;5093698;28;20227;-61
2022/04/28 05:11:24;;;;;;;17.98;10.45;;;7.60;95.30;;;;;;5093362;28;20204;-61
2022/04/28 05:13:51;;;;;;;13.90;9.30;;;7.60;95.50;;;;;;5093773;28;20218;-61
2022/04/28 05:16:19;;;;;;;11.50;7.68;;;7.60;94.90;;;;;;5093393;28;20218;-62
2022/04/28 05:18:46;;;;;;;13.07;8.32;;;7.70;94.70;;;;;;5092758;28;20207;-62
2022/04/28 05:21:13;;;;;;;13.25;8.13;;;7.80;94.60;;;;;;5080136;28;20197;-62
2022/04/28 05:23:40;;;;;;;11.45;8.90;;;8.00;94.00;;;;;;5080938;28;20208;-61
2022/04/28 05:26:07;;;;;;;10.13;8.10;;;8.10;93.30;;;;;;5081779;28;20204;-62
2022/04/28 05:28:34;;;;;;;11.38;8.10;;;8.20;92.90;;;;;;5082449;28;20228;-62
2022/04/28 05:31:02;;;;;;;11.73;8.70;;;8.20;92.30;;;;;;5081820;28;20205;-61
2022/04/28 05:33:30;;;;;;;14.88;9.23;;;8.20;91.70;;;;;;5081645;28;20205;-60
2022/04/28 05:35:57;;;;;;;12.90;8.57;;;8.20;91.40;;;;;;5079711;28;20225;-62
2022/04/28 05:38:24;;;;;;;12.05;8.35;;;8.10;91.30;;;;;;5079413;28;20688;-62
2022/04/28 05:40:51;;;;;;;13.98;8.27;;;8.10;91.20;;;;;;5077914;28;20696;-63
2022/04/28 05:46:03;;;;;;;15.48;8.85;;;8.10;91.00;;;;;;5078227;28;20184;-62
2022/04/28 05:48:34;;;;;;;13.25;8.70;;;8.10;91.20;;;;;;5078945;28;20322;-62
2022/04/28 05:51:02;;;;;;;11.97;8.73;;;8.20;91.60;;;;;;5079208;28;20277;-62
2022/04/28 05:53:29;;;;;;;16.67;7.95;;;8.20;91.00;;;;;;5079375;28;20459;-61
2022/04/28 05:55:56;;;;;;;13.90;8.60;;;8.30;90.80;;;;;;5078617;28;20310;-62
2022/04/28 05:58:23;;;;;;;12.10;8.93;;;8.30;90.40;;;;;;5078475;28;20550;-61
2022/04/28 06:00:50;;;;;;;15.50;8.50;;;8.30;90.10;;;;;;5080599;28;20443;-61
2022/04/28 06:03:17;;;;;;;10.43;8.30;;;8.30;89.80;;;;;;5081583;28;20200;-60
2022/04/28 06:05:45;;;;;;;15.32;8.88;;;8.30;89.20;;;;;;5083291;28;20225;-61
2022/04/28 06:08:12;;;;;;;10.68;8.50;;;8.40;88.60;;;;;;5086456;28;20231;-61
2022/04/28 06:10:39;;;;;;;13.98;8.65;;;8.40;88.00;;;;;;5088633;28;20211;-61
2022/04/28 06:13:07;;;;;;;12.88;7.80;;;8.40;87.60;;;;;;5092024;28;20212;-62
2022/04/28 06:15:34;;;;;;;12.98;8.82;;;8.40;87.00;;;;;;5091548;28;20225;-62
2022/04/28 06:18:01;;;;;;;15.93;9.25;;;8.50;86.50;;;;;;5087396;28;20209;-62
2022/04/28 06:20:28;;;;;;;13.35;10.18;;;8.50;86.10;;;;;;5087469;28;20215;-61
2022/04/28 06:22:57;;;;;;;14.02;8.70;;;8.60;85.60;;;;;;5089228;28;20202;-62
2022/04/28 06:25:24;;;;;;;22.10;9.30;;;8.70;85.00;;;;;;5089614;28;20232;-62
2022/04/28 06:27:51;;;;;;;12.82;7.82;;;8.80;84.50;;;;;;5089118;28;20254;-62
2022/04/28 06:30:18;;;;;;;13.40;8.48;;;8.90;84.00;;;;;;5087363;28;20197;-62
2022/04/28 06:32:45;;;;;;;13.88;8.23;;;9.00;83.90;;;;;;5086326;28;20212;-62
2022/04/28 06:35:12;;;;;;;13.18;8.02;;;9.10;82.20;;;;;;5090284;28;20225;-61
2022/04/28 06:37:40;;;;;;;12.20;6.90;;;9.20;81.30;;;;;;5088749;28;20221;-61
2022/04/28 06:40:12;;;;;;;11.18;7.13;;;9.20;80.60;;;;;;5088452;28;20197;-62
2022/04/28 06:42:42;;;;;;;18.00;8.82;;;9.30;79.90;;;;;;5089153;28;20188;-61
2022/04/28 06:45:10;;;;;;;16.55;8.23;;;9.40;79.30;;;;;;5090467;28;20217;-62
2022/04/28 06:47:37;;;;;;;10.77;6.53;;;9.50;78.80;;;;;;5086350;28;20208;-62
2022/04/28 06:50:05;;;;;;;11.52;6.57;;;9.60;77.50;;;;;;5090947;28;20353;-61
2022/04/28 06:52:32;;;;;;;17.27;7.75;;;9.70;76.80;;;;;;5083666;28;20201;-62
2022/04/28 06:54:59;;;;;;;13.65;7.15;;;9.70;76.30;;;;;;5084536;28;20221;-62
2022/04/28 06:57:28;;;;;;;8.20;5.70;;;9.70;75.80;;;;;;5081278;28;20208;-62
2022/04/28 06:59:55;;;;;;;12.57;7.07;;;9.80;75.20;;;;;;5078726;28;20201;-63
2022/04/28 07:02:22;;;;;;;8.33;7.13;;;9.90;73.90;;;;;;5077691;28;20439;-62
2022/04/28 07:04:49;;;;;;;8.07;6.00;;;9.90;73.10;;;;;;5077713;28;20466;-61
2022/04/28 07:07:16;;;;;;;8.73;5.93;;;9.80;72.60;;;;;;5076567;28;20478;-62
2022/04/28 07:09:43;;;;;;;13.70;7.22;;;9.90;72.50;;;;;;5076317;28;20205;-61
2022/04/28 07:12:12;;;;;;;7.97;5.63;;;9.90;72.40;;;;;;5076269;28;20573;-62
2022/04/28 07:14:41;;;;;;;11.90;5.43;;;9.80;72.30;;;;;;5076197;28;20239;-61
2022/04/28 07:17:08;;;;;;;10.00;5.07;;;9.90;72.50;;;;;;5076487;28;20204;-60
2022/04/28 07:19:35;;;;;;;8.88;5.60;;;10.10;71.10;;;;;;5076054;28;20197;-62
2022/04/28 07:22:05;;;;;;;8.13;4.78;;;10.30;69.70;;;;;;5075731;28;20209;-62
2022/04/28 07:24:32;;;;;;;10.63;5.50;;;10.40;68.60;;;;;;5076561;28;20267;-61
2022/04/28 07:27:01;;;;;;;11.52;5.13;;;10.50;67.80;;;;;;5080108;28;20455;-62
2022/04/28 07:29:28;;;;;;;9.50;5.10;;;10.50;67.40;;;;;;5079246;28;20231;-62
2022/04/28 07:31:57;;;;;;;7.47;4.83;;;10.70;66.80;;;;;;5079633;28;20451;-62
2022/04/28 07:34:24;;;;;;;12.27;5.33;;;10.80;65.70;;;;;;5079019;28;20467;-62
2022/04/28 07:36:51;;;;;;;11.57;5.23;;;10.80;64.80;;;;;;5077410;28;20448;-62
2022/04/28 07:39:18;;;;;;;5.80;5.20;;;10.80;64.70;;;;;;5076821;28;20436;-62
2022/04/28 07:41:45;;;;;;;7.93;4.90;;;10.90;64.90;;;;;;5075606;28;20444;-62
2022/04/28 07:44:12;;;;;;;8.83;5.10;;;10.90;64.50;;;;;;5076420;28;20468;-61
2022/04/28 07:46:39;;;;;;;8.13;5.03;;;11.00;64.00;;;;;;5076023;28;20431;-62
2022/04/28 07:49:08;;;;;;;8.97;5.20;;;11.00;63.50;;;;;;5076675;28;20475;-62
2022/04/28 07:51:35;;;;;;;7.60;5.07;;;11.10;63.10;;;;;;5078617;28;20435;-62
2022/04/28 07:54:03;;;;;;;7.83;4.50;;;11.30;62.70;;;;;;5075665;28;20983;-62
2022/04/28 07:56:31;;;;;;;11.30;5.27;;;11.40;62.10;;;;;;5080273;28;20442;-62
2022/04/28 07:58:58;;;;;;;8.50;5.03;;;11.50;61.30;;;;;;5079766;28;20447;-61
2022/04/28 08:01:25;;;;;;;8.23;4.83;;;11.50;60.80;;;;;;5080636;28;20467;-62
2022/04/28 08:03:52;;;;;;;10.80;5.40;;;11.60;60.00;;;;;;5092233;28;20440;-62
2022/04/28 08:06:20;;;;;;;12.57;6.27;;;11.50;59.50;;;;;;5093651;28;20442;-62
2022/04/28 08:08:47;;;;;;;9.30;5.90;;;11.50;59.50;;;;;;5092309;28;20480;-62
2022/04/28 08:11:14;;;;;;;8.63;5.70;;;11.50;59.50;;;;;;5087799;28;20447;-62
2022/04/28 08:13:42;;;;;;;11.80;5.70;;;11.60;59.70;;;;;;5088056;28;20442;-61
2022/04/28 08:16:09;;;;;;;13.20;5.47;;;11.70;59.40;;;;;;5088931;28;20439;-62
2022/04/28 08:18:37;;;;;;;8.50;5.10;;;11.90;58.90;;;;;;5086205;28;20437;-61
2022/04/28 08:21:08;;;;;;;8.40;5.90;;;11.90;58.10;;;;;;5083521;28;20436;-61
2022/04/28 08:23:37;;;;;;;7.20;5.20;;;12.00;57.50;;;;;;5085325;28;20432;-63
2022/04/28 08:26:04;;;;;;;5.87;5.27;;;12.00;57.40;;;;;;5083969;28;20454;-61
2022/04/28 08:28:31;;;;;;;6.80;5.50;;;12.00;57.00;;;;;;5077441;28;20450;-61
2022/04/28 08:30:59;;;;;;;10.37;5.20;;;12.00;56.80;;;;;;5075931;28;20448;-62
2022/04/28 08:33:27;;;;;;;8.97;6.63;;;12.00;56.70;;;;;;5075895;28;20457;-62
2022/04/28 08:35:55;;;;;;;9.43;6.37;;;12.10;56.80;;;;;;5075904;28;20534;-62
2022/04/28 08:38:22;;;;;;;9.80;5.93;;;12.20;57.00;;;;;;5075552;28;20448;-61
2022/04/28 08:40:59;;;;;;;7.63;5.33;;;12.30;57.00;;;;;;5076359;28;20482;-62
2022/04/28 08:43:28;;;;;;;9.00;4.70;;;12.40;56.80;;;;;;5080232;28;20814;-62
2022/04/28 08:48:47;;;;;;;9.80;5.67;;;12.50;56.20;;;;;;5037548;28;20947;-63
2022/04/28 08:51:14;;;;;;;8.80;5.80;;;12.50;56.00;;;;;;5037717;28;20871;-62
2022/04/28 08:53:42;;;;;;;9.50;5.80;;;12.60;55.90;;;;;;5036443;28;20940;-62
2022/04/28 08:56:10;;;;;;;10.77;5.60;;;12.60;55.50;;;;;;5038017;28;20475;-63
2022/04/28 08:58:38;;;;;;;7.27;5.30;;;12.70;55.50;;;;;;5038215;28;20455;-62
2022/04/28 09:01:05;;;;;;;7.83;4.93;;;12.70;55.50;;;;;;5038905;28;20528;-62
2022/04/28 09:03:32;;;;;;;10.37;5.60;;;12.80;55.20;;;;;;5039622;28;20851;-63
2022/04/28 09:06:15;;;;;;;8.90;5.83;;;12.90;55.20;;;;;;5039816;28;20479;-62
2022/04/28 09:08:43;;;;;;;9.20;6.40;;;13.00;54.90;;;;;;5040235;28;20440;-60
2022/04/28 09:11:19;;;;;;;9.33;5.80;;;13.10;54.80;;;;;;5040232;28;20459;-63
2022/04/28 09:16:36;;;;;;;7.57;5.10;;;13.30;53.70;;;;;;5040888;28;20435;-61
2022/04/28 09:19:03;;;;;;;12.13;6.00;;;13.30;53.60;;;;;;5041196;28;20995;-61
2022/04/28 09:21:33;;;;;;;9.00;6.53;;;13.30;53.40;;;;;;5041517;28;20457;-61
2022/04/28 09:24:00;;;;;;;10.73;6.60;;;13.40;53.60;;;;;;5040987;28;20487;-63
2022/04/28 09:26:29;;;;;;;10.03;6.00;;;13.50;53.50;;;;;;5040518;28;20452;-62
2022/04/28 09:28:57;;;;;;;8.20;5.50;;;13.60;53.20;;;;;;5040351;28;20941;-63
2022/04/28 09:31:24;;;;;;;6.93;5.40;;;13.70;53.00;;;;;;5041022;28;20448;-62
2022/04/28 09:33:51;;;;;;;11.50;6.00;;;13.80;52.40;;;;;;5041530;28;20456;-62
2022/04/28 09:36:18;;;;;;;11.90;6.63;;;13.80;51.70;;;;;;5040640;28;20472;-62
2022/04/28 09:38:45;;;;;;;11.80;6.80;;;13.70;51.80;;;;;;5041316;28;20495;-62
2022/04/28 09:43:58;;;;;;;9.97;6.40;;;13.70;51.80;;;;;;5040860;28;20407;-62
2022/04/28 09:46:25;;;;;;;10.77;6.70;;;13.90;51.70;;;;;;5040573;28;20952;-62
2022/04/28 09:48:53;;;;;;;9.13;6.73;;;14.00;51.40;;;;;;5040345;28;20448;-62
2022/04/28 09:51:25;;;;;;;14.67;7.90;;;14.10;51.30;;;;;;5040466;28;20457;-62
2022/04/28 09:53:52;;;;;;;13.80;7.67;;;14.20;50.90;;;;;;5040329;28;20441;-62
2022/04/28 09:56:24;;;;;;;8.37;6.70;;;14.20;50.80;;;;;;5040549;28;20465;-62
2022/04/28 09:58:52;;;;;;;12.57;6.60;;;14.30;50.70;;;;;;5040134;28;20429;-61
2022/04/28 10:01:21;;;;;;;12.23;7.07;;;14.40;50.50;;;;;;5040739;28;20445;-60
2022/04/28 10:03:48;;;;;;;10.50;7.20;;;14.40;50.40;;;;;;5039411;28;20454;-62
2022/04/28 10:06:16;;;;;;;12.27;7.00;;;14.40;50.20;;;;;;5039189;28;20492;-62
2022/04/28 10:08:44;;;;;;;15.33;7.80;;;14.50;50.30;;;;;;5039845;28;20460;-64
2022/04/28 10:11:19;;;;;;;12.43;7.20;;;14.40;50.30;;;;;;5039540;28;20507;-63
2022/04/28 10:13:47;;;;;;;8.73;7.20;;;14.40;50.30;;;;;;5039922;28;20441;-61
2022/04/28 10:16:16;;;;;;;9.50;7.00;;;14.40;50.30;;;;;;5039203;28;20473;-62
2022/04/28 10:18:54;;;;;;;7.73;6.43;;;14.40;50.40;;;;;;5040451;28;20464;-61
2022/04/28 10:21:25;;;;;;;11.77;6.33;;;14.50;50.60;;;;;;5040037;28;20551;-62
2022/04/28 10:32:33;;;;;;;10.30;6.80;;;14.80;49.70;;;;;;5027422;28;20429;-61
2022/04/28 10:35:07;;;;;;;11.80;6.90;;;14.80;49.70;;;;;;5039420;28;20966;-60
2022/04/28 10:37:35;;;;;;;8.47;6.97;;;14.90;49.80;;;;;;5039019;28;20926;-62
2022/04/28 10:40:04;;;;;;;13.30;7.00;;;14.90;49.70;;;;;;5039804;28;20433;-62
2022/04/28 10:43:01;;;;;;;12.20;8.10;;;14.90;49.80;;;;;;5038315;28;20460;-62
2022/04/28 10:45:37;;;;;;;11.10;7.30;;;15.00;49.70;;;;;;5034001;28;20497;-60
2022/04/28 10:48:25;;;;;;;11.00;8.60;;;15.10;49.60;;;;;;5038002;28;20857;-60
2022/04/28 10:51:14;;;;;;;13.97;7.53;;;15.20;49.50;;;;;;5038305;28;20523;-61
2022/04/28 10:54:10;;;;;;;8.93;7.13;;;15.20;49.30;;;;;;5037421;28;20421;-61
2022/04/28 10:56:54;;;;;;;10.93;7.60;;;15.00;49.60;;;;;;5037343;28;20436;-61
2022/04/28 10:59:34;;;;;;;10.43;7.83;;;14.90;49.90;;;;;;5035638;28;20457;-61
2022/04/28 11:02:41;;;;;;;11.90;8.10;;;15.10;50.00;;;;;;5037862;28;20426;-63
2022/04/28 11:05:38;;;;;;;10.10;7.87;;;15.40;49.40;;;;;;5037879;28;20469;-61
2022/04/28 11:08:34;;;;;;;9.70;7.60;;;15.60;49.00;;;;;;5030019;28;20460;-61
2022/04/28 11:11:05;;;;;;;10.37;7.70;;;15.80;48.50;;;;;;5036852;28;20495;-62
2022/04/28 11:13:34;;;;;;;9.97;7.33;;;15.80;47.20;;;;;;5038238;28;20450;-63
2022/04/28 11:16:02;;;;;;;10.43;7.80;;;15.80;46.80;;;;;;5038645;28;20953;-62
2022/04/28 11:18:30;;;;;;;9.60;7.60;;;15.80;46.80;;;;;;5037816;28;20466;-61
2022/04/28 11:21:01;;;;;;;12.00;8.27;;;15.80;46.50;;;;;;5037232;28;20502;-61
2022/04/28 11:23:35;;;;;;;10.20;8.40;;;15.80;46.30;;;;;;5038207;28;20805;-62
2022/04/28 11:26:03;;;;;;;12.90;7.70;;;15.80;46.30;;;;;;5037750;28;20529;-62
2022/04/28 11:28:31;;;;;;;13.97;9.93;;;15.70;45.80;;;;;;5037522;28;20451;-62
2022/04/28 11:30:59;;;;;;;12.00;7.33;;;15.60;45.90;;;;;;5038464;28;20480;-63
2022/04/28 11:33:26;;;;;;;13.13;7.70;;;15.60;46.20;;;;;;5037791;28;20530;-61
2022/04/28 11:35:54;;;;;;;12.43;8.67;;;15.60;46.40;;;;;;5038998;28;20477;-61
2022/04/28 11:38:26;;;;;;;13.67;9.30;;;15.70;46.60;;;;;;5038200;28;20529;-62
2022/04/28 11:41:03;;;;;;;12.30;8.80;;;15.80;46.70;;;;;;5037922;28;20441;-63
2022/04/28 11:43:34;;;;;;;9.60;7.73;;;15.80;46.60;;;;;;5038949;28;20433;-60
2022/04/28 11:46:02;;;;;;;8.80;7.90;;;15.90;46.70;;;;;;5037648;28;20485;-61
2022/04/28 11:48:30;;;;;;;12.33;8.10;;;16.30;46.30;;;;;;5037584;28;20451;-61
2022/04/28 11:51:05;;;;;;;8.40;7.70;;;16.80;45.50;;;;;;5036994;28;20481;-61
2022/04/28 11:53:43;;;;;;;12.97;7.97;;;17.50;44.40;;;;;;5038228;28;21050;-62
2022/04/28 11:56:19;;;;;;;9.20;7.73;;;18.10;43.40;;;;;;5037279;28;20472;-64
2022/04/28 11:58:48;;;;;;;10.37;8.43;;;18.50;42.50;;;;;;5038028;28;20455;-63
2022/04/28 12:01:16;;;;;;;10.93;8.47;;;18.80;42.00;;;;;;5037298;28;20470;-62
2022/04/28 12:03:49;;;;;;;10.60;7.93;;;19.00;41.70;;;;;;5037109;28;20463;-62
2022/04/28 12:06:18;;;;;;;11.67;8.67;;;19.20;41.30;;;;;;5036905;28;20838;-62
2022/04/28 12:08:53;;;;;;;9.73;7.97;;;19.30;41.10;;;;;;5037117;28;20502;-62
2022/04/28 12:14:23;;;;;;;8.93;7.80;;;19.30;40.50;;;;;;5036740;28;20412;-63
2022/04/28 12:19:51;;;;;;;12.67;8.70;;;19.30;40.20;;;;;;5036534;28;20409;-62
2022/04/28 12:22:32;;;;;;;8.60;7.30;;;19.30;40.00;;;;;;5036812;28;20433;-62
2022/04/28 12:25:08;;;;;;;12.13;8.30;;;19.10;40.20;;;;;;5037273;28;20496;-61
2022/04/28 12:27:46;;;;;;;12.97;7.80;;;18.80;40.50;;;;;;5037377;28;20940;-62
2022/04/28 12:30:15;;;;;;;12.40;8.43;;;18.40;41.00;;;;;;5037896;28;20539;-61
2022/04/28 12:32:45;;;;;;;16.17;8.90;;;17.90;41.70;;;;;;5040835;28;20453;-62
2022/04/28 12:35:25;;;;;;;8.97;8.07;;;17.40;42.20;;;;;;5041587;28;20463;-62
2022/04/28 12:38:01;;;;;;;8.60;7.80;;;17.10;42.80;;;;;;5041100;28;20433;-62
2022/04/28 12:40:36;;;;;;;12.40;8.47;;;17.00;43.10;;;;;;5041378;28;20451;-62
2022/04/28 12:43:04;;;;;;;12.33;8.70;;;16.90;43.20;;;;;;5041056;28;20429;-62
2022/04/28 12:45:40;;;;;;;9.57;8.20;;;17.00;43.50;;;;;;5040899;28;20981;-62
2022/04/28 12:48:09;;;;;;;9.90;8.57;;;16.90;43.50;;;;;;5040682;28;20803;-61
2022/04/28 12:50:36;;;;;;;13.67;8.30;;;17.00;43.80;;;;;;5040710;28;20508;-62
2022/04/28 12:53:03;;;;;;;10.40;7.77;;;17.00;43.90;;;;;;5041426;28;20457;-62
2022/04/28 12:55:36;;;;;;;9.37;8.10;;;16.90;44.10;;;;;;5041335;28;20472;-62
2022/04/28 12:58:05;;;;;;;10.77;8.43;;;16.90;44.30;;;;;;5040533;28;20901;-62
2022/04/28 13:00:38;;;;;;;10.20;7.80;;;17.00;43.90;;;;;;5040188;28;20527;-63
2022/04/28 13:03:08;;;;;;;10.40;8.77;;;16.90;43.90;;;;;;5040528;28;20432;-62
2022/04/28 13:05:35;;;;;;;9.90;8.27;;;16.80;43.90;;;;;;5041395;28;20509;-62
2022/04/28 13:08:02;;;;;;;11.70;7.27;;;16.90;44.10;;;;;;5041201;28;20444;-62
2022/04/28 13:10:29;;;;;;;9.70;6.80;;;16.90;44.00;;;;;;5039485;28;20500;-60
2022/04/28 13:12:57;;;;;;;10.60;7.90;;;17.10;44.20;;;;;;5039760;28;20452;-61
2022/04/28 13:15:25;;;;;;;8.80;6.70;;;17.10;44.00;;;;;;5039097;28;20548;-62
2022/04/28 13:17:52;;;;;;;8.60;6.73;;;17.20;43.90;;;;;;5039096;28;20934;-60
2022/04/28 13:20:20;;;;;;;10.73;7.70;;;17.20;43.40;;;;;;5039786;28;20454;-62
2022/04/28 13:22:47;;;;;;;8.67;6.90;;;17.20;43.10;;;;;;5039168;28;20488;-62
2022/04/28 13:25:16;;;;;;;10.00;5.87;;;17.20;43.00;;;;;;5039350;28;20976;-63
2022/04/28 13:27:43;;;;;;;7.63;6.47;;;17.20;42.80;;;;;;5039449;28;20461;-60
2022/04/28 13:30:11;;;;;;;7.83;5.60;;;17.20;42.40;;;;;;5040217;28;20449;-63
2022/04/28 13:32:39;;;;;;;8.60;5.90;;;17.30;42.00;;;;;;5039517;28;20452;-61
2022/04/28 13:35:07;;;;;;;10.67;5.67;;;17.40;41.70;;;;;;5039645;28;20483;-61
2022/04/28 13:37:34;;;;;;;9.40;5.80;;;17.40;41.40;;;;;;5039880;28;20473;-63
2022/04/28 13:40:02;;;;;;;7.93;6.50;;;17.40;41.20;;;;;;5039437;28;20841;-62
2022/04/28 13:42:29;;;;;;;7.00;5.60;;;17.30;41.00;;;;;;5039944;28;20453;-61